White Plains, NY

6:56 PM EST on February 06, 2016 (GMT -0500)
Woodcrest Heights | | Change Station
CLOSE
Current Station
Personal Weather Station
Location: White Plains, NY
Elevation: 328 ft
Nearby Weather Stations

Elev 328 ft 41.05 °N, 73.76 °W | Updated 1 minute ago

Clear
Clear
34.5 °F
Feels Like 34 °F
N
0.0
Wind Variable Wind from West
Gusts 0.0 mph

Today
High -- | Low -- °F
--% Chance of Precip.
Yesterday
High -- | Low -- °F
Precip. -- in
Pressure 30.29 in
Visibility 10.0 miles
Clouds Clear
Windchill 34 °F
Dew Point 21 °F
Humidity 57%
Rainfall 0.13 in
Snow Depth Not available.
7:01 AM 5:17 PM
Waning Crescent, 3% visible
METAR KHPN 062256Z 00000KT 10SM CLR 01/M07 A3026 RMK AO2 SLP257 T00111072
Pressure 30.29 in
Visibility 10.0 miles
Clouds Clear
Windchill 34 °F
Dew Point 21 °F
Humidity 57%
Rainfall 0.13 in
Snow Depth Not available.
7:01 AM 5:17 PM
Waning Crescent, 3% visible
METAR KHPN 062256Z 00000KT 10SM CLR 01/M07 A3026 RMK AO2 SLP257 T00111072

10-Day Weather Forecast

Almanac

Astronomy

Feb. 06, 2016 Rise Set
Actual Time
Civil Twilight
Nautical Twilight
Astronomical Twilight
Moon
Length of Visible Light
Length of Day
Tomorrow will be .
, % of the Moon is Illuminated

Today's Extremes

State Highs State Lows

Community

WunderPhotos

Upload Photos

1,891,098 photos uploaded!

WunderBlog® & News

Nearby

Air Quality

  Air Quality AQ Index Pollutant
Not available.

Snow Depth

Station Depth Elevation

Earthquake Activity

City Distance Mag. Time & Date
Minimum magnitude displayed is 2.5.

Coastal Water Temperatures

Place Temperature

Stations

Nearby Weather Stations

Station Location Temp. Windchill Dew Point Humidity Wind Precip. Elev Updated Type
                   

Watches & Warnings

There are currently no watches in effect.